DTTF/GAF METAR and TAF weather

Enter ICAO airport designator
Station Type Date Time Source
DTTF METAR 2022/06/25 23:00 UTC NOAA

DTTF 252300Z 33008KT 300V360 CAVOK 32/07 Q1013


Station Type Date Time Source
DTTF Decoded METAR 2022/06/25 23:00 UTC NOAA

Gafsa, Tunisia (DTTF) 34-25N 008-49E 314M
Jun 25, 2022 - 07:00 PM EDT / 2022.06.25 2300 UTC
Wind: from the NNW (330 degrees) at 9 MPH (8 KT) (direction variable):0
Visibility: greater than 7 mile(s):0
Temperature: 89 F (32 C)
Dew Point: 44 F (7 C)
Relative Humidity: 21%
Pressure (altimeter): 29.91 in. Hg (1013 hPa)
ob: DTTF 252300Z 33008KT 300V360 CAVOK 32/07 Q1013
cycle: 23

Station Type Date Time Source
DTTF TAF 2022/02/16 10:30 UTC NOAA

TAF DTTF 160900Z 1610/1622 VRB03KT 9999 FEW033
BECMG 1610/1612 22010KT
BECMG 1619/1621 28005KT

Example: see airport list